createdAt,value
2019-01-10T00:01:06.371Z,1.40
2019-01-10T00:03:36.580Z,0.90
2019-01-10T00:06:06.639Z,1.70
2019-01-10T00:08:36.721Z,1.07
2019-01-10T00:11:06.797Z,1.43
2019-01-10T00:13:38.086Z,1.33
2019-01-10T00:16:08.194Z,1.43
2019-01-10T00:18:38.182Z,1.30
2019-01-10T00:21:08.181Z,1.30
2019-01-10T00:23:38.270Z,1.07
2019-01-10T00:26:08.289Z,1.60
2019-01-10T00:28:38.375Z,0.90
2019-01-10T00:31:08.432Z,1.20
2019-01-10T00:33:38.574Z,1.30
2019-01-10T00:36:08.715Z,1.80
2019-01-10T00:38:38.756Z,1.13
2019-01-10T00:41:08.834Z,1.17
2019-01-10T00:43:38.904Z,1.20
2019-01-10T00:46:09.001Z,1.37
2019-01-10T00:48:39.062Z,1.10
2019-01-10T00:51:09.185Z,1.40
2019-01-10T00:53:39.345Z,1.03
2019-01-10T00:56:09.439Z,1.30
2019-01-10T00:58:39.563Z,1.20
2019-01-10T01:01:10.010Z,1.02
2019-01-10T01:03:40.034Z,1.23
2019-01-10T01:06:10.202Z,1.37
2019-01-10T01:08:40.235Z,1.23
2019-01-10T01:11:10.221Z,0.88
2019-01-10T01:13:40.335Z,1.30
2019-01-10T01:16:10.461Z,0.80
2019-01-10T01:18:40.627Z,1.80
2019-01-10T01:21:10.763Z,0.90
2019-01-10T01:23:40.843Z,1.37
2019-01-10T01:26:11.008Z,1.60
2019-01-10T01:28:41.227Z,1.27
2019-01-10T01:31:11.320Z,1.43
2019-01-10T01:33:41.502Z,1.10
2019-01-10T01:36:11.547Z,1.30
2019-01-10T01:38:41.703Z,1.03
2019-01-10T01:41:11.903Z,1.33
2019-01-10T01:43:42.251Z,1.40
2019-01-10T01:46:30.622Z,0.93
2019-01-10T01:49:00.859Z,1.10
2019-01-10T01:51:31.056Z,1.43
2019-01-10T01:54:01.227Z,1.23
2019-01-10T01:56:32.410Z,1.43
2019-01-10T01:59:02.515Z,1.30
2019-01-10T02:01:32.802Z,1.10
2019-01-10T02:04:02.826Z,1.47
2019-01-10T02:06:32.890Z,1.40
2019-01-10T02:09:04.080Z,1.40
2019-01-10T02:11:34.178Z,0.90
2019-01-10T02:14:05.101Z,1.13
2019-01-10T02:16:35.330Z,1.00
2019-01-10T02:19:06.558Z,1.00
2019-01-10T02:21:36.665Z,1.20
2019-01-10T02:24:06.847Z,1.13
2019-01-10T02:26:38.675Z,1.10
2019-01-10T02:29:08.785Z,1.37
2019-01-10T02:31:38.948Z,1.03
2019-01-10T02:34:09.384Z,1.20
2019-01-10T02:36:39.606Z,0.93
2019-01-10T02:39:09.971Z,1.30
2019-01-10T02:41:40.143Z,1.27
2019-01-10T02:44:10.348Z,1.10
2019-01-10T02:46:40.578Z,1.17
2019-01-10T02:49:10.690Z,1.10
2019-01-10T02:51:40.798Z,0.70
2019-01-10T02:54:10.869Z,1.17
2019-01-10T02:56:41.024Z,1.27
2019-01-10T02:59:11.088Z,0.67
2019-01-10T03:01:41.170Z,1.30
2019-01-10T03:04:11.410Z,1.10
2019-01-10T03:06:41.505Z,1.03
2019-01-10T03:09:11.533Z,1.30
2019-01-10T03:11:41.523Z,1.30
2019-01-10T03:14:11.528Z,0.83
2019-01-10T03:16:41.709Z,1.77
2019-01-10T03:19:13.056Z,1.03
2019-01-10T03:21:43.255Z,0.90
2019-01-10T03:24:13.359Z,1.12
2019-01-10T03:26:43.649Z,1.00
2019-01-10T03:29:13.923Z,1.20
2019-01-10T03:31:44.166Z,1.13
2019-01-10T03:34:14.560Z,1.03
2019-01-10T03:36:44.570Z,1.30
2019-01-10T03:39:15.006Z,0.90
2019-01-10T03:41:47.018Z,1.33
2019-01-10T03:44:16.822Z,1.40
2019-01-10T03:46:46.998Z,1.40
2019-01-10T03:49:17.008Z,1.07
2019-01-10T03:51:47.107Z,1.20
2019-01-10T03:54:17.986Z,1.03
2019-01-10T03:56:48.010Z,1.00
2019-01-10T03:59:18.149Z,1.03
2019-01-10T04:01:48.228Z,0.77
2019-01-10T04:04:18.274Z,0.93
2019-01-10T04:06:48.370Z,0.80
2019-01-10T04:09:18.522Z,1.23
2019-01-10T04:11:48.528Z,1.10
2019-01-10T04:14:18.614Z,0.70
2019-01-10T04:16:48.790Z,0.70
2019-01-10T04:19:18.887Z,1.07
2019-01-10T04:21:48.991Z,1.00
2019-01-10T04:24:19.330Z,1.10
2019-01-10T04:26:49.813Z,0.50
2019-01-10T04:29:20.147Z,0.93
2019-01-10T04:31:50.249Z,1.07
2019-01-10T04:34:20.561Z,0.83
2019-01-10T04:36:50.767Z,0.90
2019-01-10T04:39:20.748Z,0.87
2019-01-10T04:41:52.782Z,0.73
2019-01-10T04:44:22.976Z,1.00
2019-01-10T04:46:53.069Z,0.90
2019-01-10T04:49:23.200Z,0.97
2019-01-10T04:51:53.278Z,1.03
2019-01-10T04:54:23.334Z,1.50
2019-01-10T04:56:53.380Z,0.90
2019-01-10T04:59:23.531Z,0.90
2019-01-10T05:01:53.654Z,0.90
2019-01-10T05:04:23.825Z,0.90
2019-01-10T05:06:53.884Z,0.83
2019-01-10T05:09:24.113Z,0.60
2019-01-10T05:11:54.229Z,1.07
2019-01-10T05:14:24.306Z,0.70
2019-01-10T05:16:54.500Z,1.10
2019-01-10T05:19:24.579Z,0.70
2019-01-10T05:21:54.713Z,0.90
2019-01-10T05:24:25.857Z,1.00
2019-01-10T05:26:55.978Z,0.77
2019-01-10T05:29:26.077Z,0.97
2019-01-10T05:31:56.173Z,1.33
2019-01-10T05:34:26.306Z,0.83
2019-01-10T05:36:56.373Z,1.00
2019-01-10T05:39:26.498Z,1.37
2019-01-10T05:41:56.499Z,0.87
2019-01-10T05:44:27.101Z,0.70
2019-01-10T05:46:57.285Z,1.07
2019-01-10T05:49:27.719Z,1.00
2019-01-10T05:51:57.796Z,0.77
2019-01-10T05:54:27.906Z,1.10
2019-01-10T05:56:57.966Z,0.83
2019-01-10T05:59:28.082Z,1.27
2019-01-10T06:01:58.160Z,1.03
2019-01-10T06:04:28.281Z,1.07
2019-01-10T06:06:58.477Z,1.00
2019-01-10T06:09:28.689Z,1.07
2019-01-10T06:11:59.804Z,0.93
2019-01-10T06:14:35.555Z,0.87
2019-01-10T06:17:04.455Z,1.20
2019-01-10T06:19:34.584Z,1.00
2019-01-10T06:22:04.753Z,0.70
2019-01-10T06:27:35.524Z,1.07
2019-01-10T06:30:06.481Z,0.83
2019-01-10T06:32:36.505Z,0.57
2019-01-10T06:35:07.078Z,0.87
2019-01-10T06:37:37.145Z,0.90
2019-01-10T06:40:08.146Z,0.83
2019-01-10T06:42:38.341Z,0.67
2019-01-10T06:45:09.164Z,1.20
2019-01-10T06:47:39.332Z,1.00
2019-01-10T06:50:10.032Z,1.03
2019-01-10T06:52:40.337Z,1.27
2019-01-10T06:55:10.450Z,0.97
2019-01-10T06:57:40.545Z,1.00
2019-01-10T07:00:18.209Z,1.20
2019-01-10T07:02:48.456Z,0.60
2019-01-10T07:05:18.892Z,1.63
2019-01-10T07:07:56.295Z,0.80
2019-01-10T07:10:29.463Z,0.67
2019-01-10T07:12:59.546Z,1.07
2019-01-10T07:15:29.649Z,0.70
2019-01-10T07:17:59.685Z,0.60
2019-01-10T07:20:31.254Z,1.00
2019-01-10T07:23:01.390Z,1.10
2019-01-10T07:25:31.473Z,1.00
2019-01-10T07:28:23.281Z,1.00
2019-01-10T07:30:59.331Z,1.20
2019-01-10T07:33:29.337Z,1.07
2019-01-10T07:35:59.408Z,0.87
2019-01-10T07:38:29.547Z,0.80
2019-01-10T07:40:59.635Z,1.00
2019-01-10T07:43:29.755Z,0.97
2019-01-10T07:46:04.904Z,1.23
2019-01-10T07:48:34.895Z,1.27
2019-01-10T07:51:05.190Z,1.00
2019-01-10T07:53:35.343Z,0.90
2019-01-10T07:56:05.562Z,0.60
2019-01-10T07:58:35.672Z,1.13
2019-01-10T08:01:05.732Z,0.70
2019-01-10T08:03:39.678Z,1.07
2019-01-10T08:06:09.782Z,1.40
2019-01-10T08:08:39.746Z,0.90
2019-01-10T08:11:09.864Z,1.27
2019-01-10T08:13:40.020Z,0.93
2019-01-10T08:16:10.439Z,1.43
2019-01-10T08:18:40.426Z,1.10
2019-01-10T08:21:10.549Z,0.83
2019-01-10T08:23:41.674Z,0.90
2019-01-10T08:26:11.705Z,1.07
2019-01-10T08:28:41.679Z,1.20
2019-01-10T08:31:11.725Z,0.67
2019-01-10T08:33:41.789Z,1.23
2019-01-10T08:36:11.807Z,0.60
2019-01-10T08:38:41.830Z,1.03
2019-01-10T08:41:13.942Z,0.83
2019-01-10T08:43:44.193Z,1.03
2019-01-10T08:46:14.263Z,1.40
2019-01-10T08:48:44.333Z,1.43
2019-01-10T08:51:14.748Z,1.10
2019-01-10T08:53:53.597Z,1.50
2019-01-10T08:56:16.690Z,1.23
2019-01-10T08:58:46.765Z,1.30
2019-01-10T09:01:16.818Z,1.00
2019-01-10T09:03:46.886Z,1.30
2019-01-10T09:06:16.892Z,1.03
2019-01-10T09:08:46.871Z,1.37
2019-01-10T09:11:16.913Z,1.57
2019-01-10T09:13:48.463Z,1.30
2019-01-10T09:16:18.602Z,3.10
2019-01-10T09:18:48.670Z,1.73
2019-01-10T09:21:18.748Z,1.33
2019-01-10T09:23:48.719Z,1.40
2019-01-10T09:26:18.712Z,1.53
2019-01-10T09:28:48.823Z,1.70
2019-01-10T09:31:18.845Z,1.07
2019-01-10T09:33:48.847Z,1.63
2019-01-10T09:36:18.921Z,1.57
2019-01-10T09:38:49.083Z,1.77
2019-01-10T09:41:19.177Z,1.63
2019-01-10T09:43:49.429Z,1.37
2019-01-10T09:46:19.558Z,1.40
2019-01-10T09:48:49.631Z,1.83
2019-01-10T09:51:19.623Z,1.40
2019-01-10T09:53:49.599Z,1.57
2019-01-10T09:56:20.028Z,1.40
2019-01-10T09:58:50.239Z,1.63
2019-01-10T10:01:20.254Z,1.93
2019-01-10T10:03:50.273Z,1.33
2019-01-10T10:06:20.371Z,2.07
2019-01-10T10:08:50.347Z,1.33
2019-01-10T10:11:20.459Z,1.40
2019-01-10T10:13:50.650Z,1.40
2019-01-10T10:16:20.793Z,1.30
2019-01-10T10:18:50.848Z,1.70
2019-01-10T10:21:20.905Z,1.27
2019-01-10T10:23:50.959Z,1.47
2019-01-10T10:26:21.009Z,1.53
2019-01-10T10:28:51.130Z,1.63
2019-01-10T10:31:21.200Z,1.50
2019-01-10T10:33:51.299Z,1.53
2019-01-10T10:36:21.370Z,1.62
2019-01-10T10:38:51.415Z,1.73
2019-01-10T10:41:21.465Z,1.30
2019-01-10T10:43:51.662Z,1.47
2019-01-10T10:46:21.769Z,1.37
2019-01-10T10:48:51.867Z,1.30
2019-01-10T10:51:22.123Z,2.10
2019-01-10T10:53:53.338Z,1.43
2019-01-10T10:56:23.449Z,1.32
2019-01-10T10:58:53.549Z,1.33
2019-01-10T11:01:23.737Z,1.23
2019-01-10T11:03:53.861Z,1.37
2019-01-10T11:06:23.867Z,1.87
2019-01-10T11:08:53.919Z,1.80
2019-01-10T11:11:23.997Z,1.57
2019-01-10T11:13:54.141Z,1.60
2019-01-10T11:16:24.256Z,1.22
2019-01-10T11:18:54.246Z,1.40
2019-01-10T11:21:24.317Z,1.53
2019-01-10T11:23:54.349Z,1.67
2019-01-10T11:26:24.634Z,1.30
2019-01-10T11:28:54.809Z,1.80
2019-01-10T11:31:24.779Z,1.17
2019-01-10T11:33:54.946Z,1.33
2019-01-10T11:36:24.947Z,1.33
2019-01-10T11:38:55.093Z,1.90
2019-01-10T11:41:25.189Z,1.40
2019-01-10T11:43:55.263Z,1.30
2019-01-10T11:46:25.308Z,2.00
2019-01-10T11:48:55.507Z,1.57
2019-01-10T11:51:25.706Z,1.70
2019-01-10T11:53:55.878Z,1.97
2019-01-10T11:56:26.174Z,1.30
2019-01-10T11:58:56.476Z,1.30
2019-01-10T12:01:26.581Z,1.40
2019-01-10T12:03:56.703Z,1.20
2019-01-10T12:06:26.821Z,1.33
2019-01-10T12:08:57.018Z,1.90
2019-01-10T12:11:27.037Z,1.60
2019-01-10T12:13:57.149Z,1.80
2019-01-10T12:16:28.676Z,1.20
2019-01-10T12:18:59.632Z,2.23
2019-01-10T12:21:29.809Z,1.30
2019-01-10T12:23:59.848Z,1.27
2019-01-10T12:26:30.076Z,1.80
2019-01-10T12:29:00.390Z,1.40
2019-01-10T12:31:30.990Z,1.60
2019-01-10T12:34:01.110Z,1.40
2019-01-10T12:36:31.232Z,1.33
2019-01-10T12:39:03.400Z,1.80
2019-01-10T12:41:33.229Z,1.80
2019-01-10T12:44:03.364Z,1.90
2019-01-10T12:46:37.606Z,1.30
2019-01-10T12:49:05.322Z,1.30
2019-01-10T12:51:35.432Z,1.50
2019-01-10T12:54:05.553Z,1.60
2019-01-10T12:56:35.566Z,1.17
2019-01-10T12:59:05.627Z,1.50
2019-01-10T13:01:35.594Z,1.40
2019-01-10T13:04:05.731Z,1.53
2019-01-10T13:06:35.796Z,1.43
2019-01-10T13:09:08.922Z,1.20
2019-01-10T13:11:38.964Z,1.37
2019-01-10T13:14:09.056Z,1.07
2019-01-10T13:16:46.652Z,1.50
2019-01-10T13:19:10.786Z,1.17
2019-01-10T13:21:40.768Z,1.07
2019-01-10T13:24:10.815Z,2.00
2019-01-10T13:26:40.962Z,1.30
2019-01-10T13:29:10.942Z,1.40
2019-01-10T13:31:41.025Z,1.10
2019-01-10T13:34:11.042Z,1.20
2019-01-10T13:36:41.032Z,1.17
2019-01-10T13:39:11.116Z,1.27
2019-01-10T13:41:41.208Z,1.10
2019-01-10T13:44:12.529Z,0.87
2019-01-10T13:46:42.803Z,1.10
2019-01-10T13:49:12.868Z,0.77
2019-01-10T13:51:42.930Z,1.20
2019-01-10T13:54:12.995Z,2.43
2019-01-10T13:56:43.297Z,0.93
2019-01-10T14:01:43.489Z,0.93
2019-01-10T14:06:43.837Z,1.30
2019-01-10T14:09:13.935Z,1.07
2019-01-10T14:11:43.905Z,1.43
2019-01-10T14:14:13.942Z,1.37
2019-01-10T14:16:43.999Z,0.97
2019-01-10T14:19:14.222Z,0.93
2019-01-10T14:21:46.779Z,0.93
2019-01-10T14:24:17.103Z,0.90
2019-01-10T14:26:47.230Z,0.80
2019-01-10T14:29:17.221Z,1.02
2019-01-10T14:31:47.410Z,0.80
2019-01-10T14:34:18.364Z,1.40
2019-01-10T14:36:49.409Z,0.97
2019-01-10T14:39:19.524Z,1.80
2019-01-10T14:41:49.626Z,1.63
2019-01-10T14:44:19.745Z,1.20
2019-01-10T14:46:49.827Z,1.33
2019-01-10T14:49:19.889Z,1.07
2019-01-10T14:51:49.867Z,1.80
2019-01-10T14:54:19.907Z,0.60
2019-01-10T14:56:50.054Z,1.07
2019-01-10T14:59:21.739Z,0.93
2019-01-10T15:01:51.787Z,1.00
2019-01-10T15:04:21.860Z,0.90
2019-01-10T15:06:51.861Z,1.40
2019-01-10T15:09:21.851Z,0.83
2019-01-10T15:11:51.872Z,1.20
2019-01-10T15:14:22.015Z,1.07
2019-01-10T15:16:53.058Z,1.10
2019-01-10T15:19:23.336Z,1.73
2019-01-10T15:21:53.410Z,1.27
2019-01-10T15:24:23.381Z,1.43
2019-01-10T15:26:53.434Z,1.17
2019-01-10T15:29:23.523Z,1.20
2019-01-10T15:31:53.513Z,0.85
2019-01-10T15:34:23.657Z,1.20
2019-01-10T15:36:54.215Z,1.40
2019-01-10T15:39:24.373Z,1.05
2019-01-10T15:41:54.510Z,0.67
2019-01-10T15:44:29.151Z,1.10
2019-01-10T15:46:56.503Z,0.63
2019-01-10T15:49:26.671Z,1.23
2019-01-10T15:51:56.833Z,0.90
2019-01-10T15:54:26.994Z,1.00
2019-01-10T15:57:00.688Z,0.80
2019-01-10T15:59:28.959Z,1.20
2019-01-10T16:01:59.038Z,1.67
2019-01-10T16:04:29.083Z,0.93
2019-01-10T16:06:59.120Z,1.00
2019-01-10T16:09:29.105Z,1.10
2019-01-10T16:11:59.216Z,1.00
2019-01-10T16:14:29.326Z,1.03
2019-01-10T16:16:59.446Z,0.97
2019-01-10T16:19:29.540Z,0.90
2019-01-10T16:21:59.566Z,1.07
2019-01-10T16:24:29.880Z,1.30
2019-01-10T16:27:00.310Z,0.90
2019-01-10T16:29:30.557Z,1.77
2019-01-10T16:32:00.682Z,1.33
2019-01-10T16:34:30.734Z,0.90
2019-01-10T16:37:00.814Z,0.80
2019-01-10T16:39:30.851Z,1.30
2019-01-10T16:42:00.886Z,2.57
2019-01-10T16:44:31.105Z,1.50
2019-01-10T16:47:01.184Z,1.00
2019-01-10T16:49:31.297Z,1.33
2019-01-10T16:52:01.474Z,0.98
2019-01-10T16:54:53.471Z,1.20
2019-01-10T16:57:54.403Z,1.27
2019-01-10T17:00:13.261Z,1.27
2019-01-10T17:02:43.499Z,1.13
2019-01-10T17:05:13.888Z,1.30
2019-01-10T17:07:44.438Z,0.70
2019-01-10T17:10:15.689Z,0.90
2019-01-10T17:12:46.082Z,1.40
2019-01-10T17:15:18.922Z,1.50
2019-01-10T17:17:49.441Z,1.60
2019-01-10T17:20:20.577Z,1.27
2019-01-10T17:22:50.937Z,1.60
2019-01-10T17:25:21.175Z,2.00
2019-01-10T17:27:51.542Z,1.70
2019-01-10T17:30:23.378Z,1.60
2019-01-10T17:32:54.347Z,2.13
2019-01-10T17:35:25.945Z,1.70
2019-01-10T17:37:57.873Z,1.30
2019-01-10T17:40:29.979Z,1.60
2019-01-10T17:43:00.540Z,2.20
2019-01-10T17:45:32.081Z,1.43
2019-01-10T17:48:02.436Z,1.37
2019-01-10T17:50:32.977Z,1.80
2019-01-10T17:53:06.550Z,1.97
2019-01-10T17:55:46.161Z,1.67
2019-01-10T17:58:16.693Z,1.60
2019-01-10T18:01:00.570Z,1.40
2019-01-10T18:03:32.183Z,1.50
2019-01-10T18:06:24.080Z,1.67
2019-01-10T18:08:56.087Z,1.77
2019-01-10T18:11:31.271Z,1.60
2019-01-10T18:14:09.243Z,1.60
2019-01-10T18:16:40.564Z,2.05
2019-01-10T18:19:10.964Z,2.00
2019-01-10T18:21:41.033Z,2.20
2019-01-10T18:24:11.225Z,1.23
2019-01-10T18:26:41.548Z,1.70
2019-01-10T18:29:12.246Z,2.27
2019-01-10T18:31:42.438Z,1.30
2019-01-10T18:34:14.645Z,1.60
2019-01-10T18:36:45.000Z,1.87
2019-01-10T18:39:15.619Z,2.13
2019-01-10T18:41:46.806Z,1.93
2019-01-10T18:44:18.263Z,1.67
2019-01-10T18:46:48.381Z,1.63
2019-01-10T18:49:18.993Z,1.35
2019-01-10T18:51:59.056Z,1.97
2019-01-10T18:54:29.406Z,2.53
2019-01-10T18:56:59.552Z,1.77
2019-01-10T18:59:29.678Z,1.57
2019-01-10T19:02:00.037Z,1.23
2019-01-10T19:04:30.137Z,1.20
2019-01-10T19:07:05.754Z,1.57
2019-01-10T19:09:36.843Z,1.33
2019-01-10T19:12:13.910Z,1.30
2019-01-10T19:14:52.183Z,1.27
2019-01-10T19:17:26.155Z,1.37
2019-01-10T19:19:56.314Z,1.17
2019-01-10T19:22:26.681Z,1.60
2019-01-10T19:24:57.340Z,1.40
2019-01-10T19:27:27.502Z,1.93
2019-01-10T19:30:00.822Z,1.30
2019-01-10T19:32:31.349Z,1.73
2019-01-10T19:35:01.878Z,1.87
2019-01-10T19:37:32.604Z,2.05
2019-01-10T19:40:03.310Z,1.73
2019-01-10T19:42:33.627Z,1.37
2019-01-10T19:45:05.530Z,1.70
2019-01-10T19:47:36.143Z,1.93
2019-01-10T19:50:06.972Z,2.00
2019-01-10T19:52:37.343Z,2.10
2019-01-10T19:55:08.680Z,1.83
2019-01-10T19:57:39.366Z,1.67
2019-01-10T20:00:12.371Z,2.20
2019-01-10T20:02:42.834Z,2.23
2019-01-10T20:05:17.226Z,2.50
2019-01-10T20:07:47.350Z,2.40
2019-01-10T20:10:17.542Z,2.42
2019-01-10T20:12:47.802Z,1.90
2019-01-10T20:15:19.179Z,1.93
2019-01-10T20:17:49.362Z,3.20
2019-01-10T20:20:38.669Z,2.47
2019-01-10T20:23:10.163Z,2.50
2019-01-10T20:25:51.876Z,3.23
2019-01-10T20:28:22.078Z,2.60
2019-01-10T20:30:52.411Z,2.80
2019-01-10T20:33:22.474Z,2.80
2019-01-10T20:35:52.535Z,2.93
2019-01-10T20:38:22.612Z,3.10
2019-01-10T20:40:52.689Z,4.27
2019-01-10T20:43:22.781Z,2.70
2019-01-10T20:45:52.881Z,3.30
2019-01-10T20:48:23.105Z,4.13
2019-01-10T20:50:53.152Z,3.20
2019-01-10T20:53:23.240Z,4.10
2019-01-10T20:55:53.336Z,3.77
2019-01-10T20:58:23.568Z,4.00
2019-01-10T21:00:54.081Z,4.20
2019-01-10T21:03:24.179Z,4.37
2019-01-10T21:05:54.299Z,3.70
2019-01-10T21:08:24.437Z,4.30
2019-01-10T21:10:54.655Z,4.23
2019-01-10T21:13:24.710Z,4.67
2019-01-10T21:15:56.714Z,4.30
2019-01-10T21:18:28.758Z,4.20
2019-01-10T21:20:58.790Z,6.30
2019-01-10T21:23:28.879Z,5.67
2019-01-10T21:25:59.025Z,5.33
2019-01-10T21:28:29.269Z,4.80
2019-01-10T21:30:59.458Z,4.90
2019-01-10T21:33:30.500Z,4.60
2019-01-10T21:36:00.778Z,4.67
2019-01-10T21:38:30.798Z,4.87
2019-01-10T21:41:00.880Z,4.60
2019-01-10T21:43:30.978Z,4.50
2019-01-10T21:46:01.193Z,5.83
2019-01-10T21:48:35.031Z,4.97
2019-01-10T21:51:04.034Z,5.37
2019-01-10T21:53:34.298Z,5.73
2019-01-10T21:56:07.168Z,6.30
2019-01-10T21:58:37.457Z,6.50
2019-01-10T22:01:07.758Z,5.40
2019-01-10T22:03:37.761Z,5.00
2019-01-10T22:06:08.010Z,6.87
2019-01-10T22:08:49.433Z,7.30
2019-01-10T22:11:19.528Z,6.28
2019-01-10T22:13:49.632Z,7.73
2019-01-10T22:16:19.679Z,6.30
2019-01-10T22:18:49.783Z,6.28
2019-01-10T22:21:19.837Z,6.80
2019-01-10T22:23:49.890Z,6.97
2019-01-10T22:26:20.016Z,6.77
2019-01-10T22:28:49.994Z,8.03
2019-01-10T22:31:20.010Z,6.53
2019-01-10T22:33:49.993Z,6.50
2019-01-10T22:36:20.091Z,7.47
2019-01-10T22:38:51.090Z,7.37
2019-01-10T22:41:21.107Z,8.07
2019-01-10T22:43:51.193Z,6.77
2019-01-10T22:46:21.531Z,7.37
2019-01-10T22:48:51.714Z,8.00
2019-01-10T22:51:21.936Z,7.03
2019-01-10T22:53:52.595Z,7.27
2019-01-10T22:56:23.023Z,7.17
2019-01-10T22:58:53.304Z,7.07
2019-01-10T23:01:38.598Z,6.97
2019-01-10T23:04:10.093Z,7.00
2019-01-10T23:06:41.930Z,7.53
2019-01-10T23:09:12.584Z,6.80
2019-01-10T23:11:42.898Z,7.57
2019-01-10T23:14:20.690Z,7.37
2019-01-10T23:16:50.885Z,6.40
2019-01-10T23:19:21.132Z,7.23
2019-01-10T23:24:55.887Z,7.97
2019-01-10T23:27:25.951Z,7.70
2019-01-10T23:29:56.462Z,7.20
2019-01-10T23:32:27.304Z,8.20
2019-01-10T23:34:57.306Z,8.67
2019-01-10T23:37:27.561Z,8.40
2019-01-10T23:39:57.666Z,8.17
2019-01-10T23:42:27.781Z,7.77
2019-01-10T23:44:57.835Z,7.70
2019-01-10T23:47:27.924Z,7.63
2019-01-10T23:49:57.995Z,9.47
2019-01-10T23:52:28.104Z,8.23
2019-01-10T23:54:59.686Z,8.73
2019-01-10T23:57:29.830Z,9.13
2019-01-10T23:59:59.873Z,8.07
